createdAt,value
2019-01-20T00:00:31.920Z,65.40
2019-01-20T00:03:03.808Z,61.83
2019-01-20T00:05:35.410Z,61.43
2019-01-20T00:08:08.418Z,60.87
2019-01-20T00:10:40.186Z,58.60
2019-01-20T00:13:11.760Z,60.43
2019-01-20T00:15:45.304Z,58.63
2019-01-20T00:18:17.152Z,60.47
2019-01-20T00:20:49.032Z,59.53
2019-01-20T00:23:20.706Z,60.73
2019-01-20T00:25:52.544Z,61.20
2019-01-20T00:28:24.137Z,59.33
2019-01-20T00:30:58.736Z,56.30
2019-01-20T00:33:30.403Z,57.03
2019-01-20T00:36:03.221Z,59.90
2019-01-20T00:38:34.712Z,62.77
2019-01-20T00:41:06.311Z,63.27
2019-01-20T00:43:38.445Z,65.97
2019-01-20T00:46:10.072Z,64.33
2019-01-20T00:48:41.859Z,55.37
2019-01-20T00:51:16.481Z,57.73
2019-01-20T00:53:47.990Z,58.10
2019-01-20T00:56:20.014Z,59.03
2019-01-20T00:58:51.527Z,59.03
2019-01-20T01:01:23.226Z,60.63
2019-01-20T01:03:55.572Z,60.10
2019-01-20T01:06:27.227Z,60.83
2019-01-20T01:08:58.842Z,61.40
2019-01-20T01:11:31.807Z,62.03
2019-01-20T01:14:03.846Z,63.03
2019-01-20T01:16:35.728Z,60.40
2019-01-20T01:19:07.481Z,64.20
2019-01-20T01:21:39.441Z,64.37
2019-01-20T01:24:10.995Z,65.50
2019-01-20T01:26:42.631Z,61.37
2019-01-20T01:29:14.350Z,63.93
2019-01-20T01:31:46.108Z,65.77
2019-01-20T01:34:17.683Z,60.60
2019-01-20T01:36:49.322Z,64.17
2019-01-20T01:39:23.187Z,63.50
2019-01-20T01:41:54.842Z,64.03
2019-01-20T01:44:26.357Z,60.77
2019-01-20T01:46:58.045Z,62.67
2019-01-20T01:49:29.939Z,62.37
2019-01-20T01:52:01.634Z,63.10
2019-01-20T01:54:33.229Z,60.43
2019-01-20T01:57:04.758Z,66.37
2019-01-20T01:59:36.312Z,61.63
2019-01-20T02:02:09.326Z,63.60
2019-01-20T02:04:40.868Z,63.67
2019-01-20T02:07:12.465Z,64.97
2019-01-20T02:09:43.956Z,67.70
2019-01-20T02:12:15.500Z,59.93
2019-01-20T02:14:46.991Z,65.37
2019-01-20T02:17:20.288Z,64.83
2019-01-20T02:19:52.081Z,66.10
2019-01-20T02:22:24.103Z,70.13
2019-01-20T02:24:55.701Z,68.73
2019-01-20T02:27:27.308Z,72.83
2019-01-20T02:29:58.886Z,68.73
2019-01-20T02:32:31.745Z,69.57
2019-01-20T02:35:03.658Z,71.27
2019-01-20T02:37:35.370Z,66.90
2019-01-20T02:40:08.704Z,72.30
2019-01-20T02:42:40.433Z,67.57
2019-01-20T02:45:13.530Z,71.17
2019-01-20T02:47:45.274Z,71.80
2019-01-20T02:50:17.768Z,70.00
2019-01-20T02:52:49.462Z,69.07
2019-01-20T02:55:30.205Z,72.47
2019-01-20T02:58:02.177Z,72.27
2019-01-20T03:00:33.698Z,69.20
2019-01-20T03:03:05.460Z,71.07
2019-01-20T03:05:38.943Z,69.37
2019-01-20T03:08:10.298Z,67.77
2019-01-20T03:10:41.793Z,67.33
2019-01-20T03:13:13.382Z,72.30
2019-01-20T03:15:44.834Z,66.80
2019-01-20T03:18:16.361Z,76.17
2019-01-20T03:20:48.039Z,72.13
2019-01-20T03:23:19.930Z,70.57
2019-01-20T03:25:51.454Z,73.33
2019-01-20T03:28:23.249Z,65.63
2019-01-20T03:30:54.753Z,68.33
2019-01-20T03:33:26.569Z,62.70
2019-01-20T03:35:58.132Z,63.53
2019-01-20T03:38:30.019Z,65.30
2019-01-20T03:41:01.493Z,63.67
2019-01-20T03:43:33.291Z,63.90
2019-01-20T03:46:04.751Z,64.70
2019-01-20T03:48:36.387Z,62.57
2019-01-20T03:51:08.178Z,60.43
2019-01-20T03:53:39.822Z,60.53
2019-01-20T03:56:11.375Z,59.83
2019-01-20T03:58:43.137Z,65.63
2019-01-20T04:01:14.670Z,60.67
2019-01-20T04:03:46.540Z,60.33
2019-01-20T04:06:18.269Z,66.40
2019-01-20T04:08:49.792Z,66.13
2019-01-20T04:11:21.317Z,64.60
2019-01-20T04:13:53.167Z,64.63
2019-01-20T04:16:24.714Z,68.30
2019-01-20T04:18:56.600Z,74.00
2019-01-20T04:21:28.115Z,74.20
2019-01-20T04:23:59.713Z,72.10
2019-01-20T04:26:31.230Z,66.67
2019-01-20T04:29:02.908Z,70.37
2019-01-20T04:31:34.418Z,69.80
2019-01-20T04:34:06.172Z,67.63
2019-01-20T04:36:37.854Z,66.70
2019-01-20T04:39:09.832Z,66.77
2019-01-20T04:41:41.405Z,68.43
2019-01-20T04:44:13.134Z,67.30
2019-01-20T04:46:44.672Z,68.00
2019-01-20T04:49:16.514Z,68.43
2019-01-20T04:51:48.344Z,68.50
2019-01-20T04:54:20.180Z,70.33
2019-01-20T04:56:51.655Z,66.43
2019-01-20T04:59:26.250Z,66.97
2019-01-20T05:01:57.716Z,69.23
2019-01-20T05:04:29.499Z,69.27
2019-01-20T05:07:01.316Z,71.13
2019-01-20T05:09:33.084Z,67.73
2019-01-20T05:12:04.534Z,68.57
2019-01-20T05:14:41.279Z,68.43
2019-01-20T05:17:12.812Z,68.60
2019-01-20T05:19:44.537Z,67.37
2019-01-20T05:22:16.074Z,67.03
2019-01-20T05:24:47.579Z,73.50
2019-01-20T05:27:19.055Z,69.37
2019-01-20T05:29:50.641Z,69.30
2019-01-20T05:32:22.098Z,66.30
2019-01-20T05:34:56.976Z,71.87
2019-01-20T05:37:29.020Z,69.93
2019-01-20T05:40:00.747Z,71.53
2019-01-20T05:42:32.264Z,71.77
2019-01-20T05:45:04.119Z,71.90
2019-01-20T05:47:35.586Z,71.60
2019-01-20T05:50:10.252Z,73.83
2019-01-20T05:52:41.950Z,75.80
2019-01-20T05:55:14.608Z,76.23
2019-01-20T05:57:46.219Z,74.60
2019-01-20T06:00:46.475Z,78.97
2019-01-20T06:03:17.971Z,78.33
2019-01-20T06:05:49.545Z,77.50
2019-01-20T06:08:21.369Z,74.30
2019-01-20T06:10:52.890Z,72.37
2019-01-20T06:13:24.421Z,75.47
2019-01-20T06:15:56.091Z,74.97
2019-01-20T06:18:27.583Z,76.27
2019-01-20T06:20:59.131Z,70.43
2019-01-20T06:23:30.820Z,71.67
2019-01-20T06:26:02.615Z,75.47
2019-01-20T06:28:34.143Z,76.37
2019-01-20T06:31:06.044Z,74.33
2019-01-20T06:33:37.504Z,77.53
2019-01-20T06:36:09.108Z,81.50
2019-01-20T06:38:40.586Z,75.27
2019-01-20T06:41:12.479Z,75.40
2019-01-20T06:43:44.029Z,73.53
2019-01-20T06:46:18.312Z,77.47
2019-01-20T06:48:49.791Z,72.17
2019-01-20T06:51:21.548Z,69.47
2019-01-20T06:53:53.272Z,68.57
2019-01-20T06:56:24.916Z,67.33
2019-01-20T06:58:56.411Z,67.27
2019-01-20T07:01:27.945Z,70.00
2019-01-20T07:03:59.492Z,67.47
2019-01-20T07:06:31.166Z,71.47
2019-01-20T07:09:03.214Z,71.13
2019-01-20T07:11:36.137Z,69.80
2019-01-20T07:14:07.870Z,68.63
2019-01-20T07:16:39.527Z,68.47
2019-01-20T07:19:11.108Z,69.33
2019-01-20T07:21:42.748Z,66.97
2019-01-20T07:24:15.725Z,65.57
2019-01-20T07:26:47.506Z,67.77
2019-01-20T07:29:19.028Z,69.50
2019-01-20T07:31:52.860Z,75.57
2019-01-20T07:34:24.408Z,71.73
2019-01-20T07:36:56.156Z,71.63
2019-01-20T07:39:27.674Z,75.07
2019-01-20T07:41:59.488Z,82.30
2019-01-20T07:44:31.048Z,77.17
2019-01-20T07:47:02.620Z,72.77
2019-01-20T07:49:34.191Z,78.60
2019-01-20T07:52:05.788Z,78.70
2019-01-20T07:54:37.368Z,79.03
2019-01-20T07:57:09.317Z,81.07
2019-01-20T07:59:41.969Z,80.27
2019-01-20T08:02:13.768Z,82.17
2019-01-20T08:04:45.326Z,83.13
2019-01-20T08:07:17.270Z,76.83
2019-01-20T08:09:49.056Z,80.23
2019-01-20T08:12:23.606Z,82.60
2019-01-20T08:14:54.153Z,81.03
2019-01-20T08:17:25.960Z,85.03
2019-01-20T08:19:57.494Z,76.50
2019-01-20T08:22:29.072Z,73.10
2019-01-20T08:25:00.826Z,62.80
2019-01-20T08:27:32.423Z,38.53
2019-01-20T08:30:03.923Z,54.53
2019-01-20T08:32:35.532Z,52.57
2019-01-20T08:35:07.676Z,52.90
2019-01-20T08:37:39.259Z,52.83
2019-01-20T08:40:20.489Z,48.23
2019-01-20T08:42:52.353Z,52.40
2019-01-20T08:46:06.432Z,49.20
2019-01-20T08:48:38.158Z,48.30
2019-01-20T08:51:10.025Z,50.27
2019-01-20T08:53:41.662Z,48.30
2019-01-20T08:56:13.235Z,53.63
2019-01-20T08:58:45.079Z,52.03
2019-01-20T09:01:16.656Z,53.37
2019-01-20T09:03:48.409Z,50.27
2019-01-20T09:06:19.929Z,51.73
2019-01-20T09:08:51.485Z,41.40
2019-01-20T09:11:23.284Z,47.80
2019-01-20T09:13:55.138Z,49.90
2019-01-20T09:16:26.698Z,45.93
2019-01-20T09:18:58.367Z,47.70
2019-01-20T09:21:29.958Z,50.07
2019-01-20T09:24:01.762Z,46.70
2019-01-20T09:26:33.634Z,47.43
2019-01-20T09:29:07.311Z,53.57
2019-01-20T09:31:38.794Z,43.80
2019-01-20T09:34:10.519Z,48.27
2019-01-20T09:36:42.201Z,46.90
2019-01-20T09:39:20.420Z,53.27
2019-01-20T09:41:52.275Z,50.80
2019-01-20T09:44:24.264Z,51.30
2019-01-20T09:46:55.802Z,52.13
2019-01-20T09:49:27.626Z,53.20
2019-01-20T09:51:59.186Z,51.90
2019-01-20T09:54:30.974Z,55.43
2019-01-20T09:57:02.773Z,51.07
2019-01-20T09:59:34.394Z,42.70
2019-01-20T10:02:05.973Z,51.37
2019-01-20T10:04:37.781Z,52.00
2019-01-20T10:07:11.593Z,37.80
2019-01-20T10:09:43.299Z,31.27
2019-01-20T10:12:15.178Z,47.57
2019-01-20T10:14:46.958Z,46.40
2019-01-20T10:17:18.539Z,40.67
2019-01-20T10:19:50.390Z,46.27
2019-01-20T10:22:21.931Z,42.90
2019-01-20T10:24:56.683Z,36.00
2019-01-20T10:27:28.213Z,42.13
2019-01-20T10:30:00.195Z,49.77
2019-01-20T10:32:33.785Z,46.77
2019-01-20T10:35:05.949Z,48.17
2019-01-20T10:37:38.630Z,48.70
2019-01-20T10:40:10.300Z,33.43
2019-01-20T10:42:42.270Z,54.30
2019-01-20T10:45:14.231Z,50.43
2019-01-20T10:47:45.826Z,50.20
2019-01-20T10:50:17.906Z,47.70
2019-01-20T10:52:49.475Z,46.47
2019-01-20T10:55:21.108Z,38.73
2019-01-20T10:57:52.670Z,44.13
2019-01-20T11:00:28.160Z,48.07
2019-01-20T11:02:59.909Z,49.20
2019-01-20T11:05:32.835Z,41.53
2019-01-20T11:08:04.522Z,43.70
2019-01-20T11:10:37.638Z,35.27
2019-01-20T11:13:09.191Z,45.60
2019-01-20T11:15:40.837Z,45.73
2019-01-20T11:18:12.368Z,37.30
2019-01-20T11:20:44.048Z,58.23
2019-01-20T11:23:15.917Z,43.87
2019-01-20T11:25:47.735Z,43.70
2019-01-20T11:28:19.511Z,45.13
2019-01-20T11:30:53.037Z,44.27
2019-01-20T11:33:24.569Z,28.10
2019-01-20T11:35:56.468Z,39.87
2019-01-20T11:38:28.101Z,38.33
2019-01-20T11:40:59.883Z,49.93
2019-01-20T11:43:31.508Z,40.23
2019-01-20T11:46:03.313Z,45.50
2019-01-20T11:48:34.934Z,57.43
2019-01-20T11:51:06.491Z,40.27
2019-01-20T11:53:38.018Z,37.60
2019-01-20T11:56:09.804Z,45.77
2019-01-20T11:58:41.654Z,41.03
2019-01-20T12:01:13.461Z,39.47
2019-01-20T12:03:45.033Z,40.13
2019-01-20T12:06:16.859Z,37.10
2019-01-20T12:08:49.640Z,40.83
2019-01-20T12:11:21.640Z,40.33
2019-01-20T12:13:53.441Z,40.67
2019-01-20T12:16:25.238Z,41.07
2019-01-20T12:18:56.916Z,38.97
2019-01-20T12:21:28.724Z,33.43
2019-01-20T12:24:00.503Z,38.50
2019-01-20T12:26:32.327Z,35.20
2019-01-20T12:29:03.922Z,40.07
2019-01-20T12:31:35.796Z,36.43
2019-01-20T12:34:07.507Z,40.83
2019-01-20T12:36:39.204Z,33.83
2019-01-20T12:39:33.081Z,33.30
2019-01-20T12:42:04.746Z,33.60
2019-01-20T12:44:36.681Z,30.53
2019-01-20T12:47:08.146Z,27.33
2019-01-20T12:49:40.219Z,30.17
2019-01-20T12:52:12.273Z,32.80
2019-01-20T12:54:43.985Z,36.83
2019-01-20T12:57:15.924Z,37.30
2019-01-20T12:59:47.802Z,39.80
2019-01-20T13:02:19.607Z,40.13
2019-01-20T13:04:51.246Z,34.90
2019-01-20T13:07:23.136Z,41.87
2019-01-20T13:09:54.711Z,42.07
2019-01-20T13:12:26.326Z,31.20
2019-01-20T13:14:57.863Z,34.30
2019-01-20T13:17:29.601Z,32.13
2019-01-20T13:20:01.160Z,31.60
2019-01-20T13:22:33.225Z,31.93
2019-01-20T13:25:05.278Z,32.20
2019-01-20T13:27:41.585Z,32.33
2019-01-20T13:30:17.826Z,34.50
2019-01-20T13:32:49.629Z,34.77
2019-01-20T13:35:22.916Z,33.73
2019-01-20T13:38:08.415Z,38.93
2019-01-20T13:40:53.871Z,39.57
2019-01-20T13:43:25.650Z,41.00
2019-01-20T13:45:57.284Z,29.93
2019-01-20T13:48:28.946Z,30.23
2019-01-20T13:51:01.858Z,36.57
2019-01-20T13:53:33.417Z,30.33
2019-01-20T13:56:05.100Z,31.87
2019-01-20T13:58:36.917Z,25.77
2019-01-20T14:01:08.931Z,28.63
2019-01-20T14:03:40.953Z,27.80
2019-01-20T14:06:12.770Z,31.90
2019-01-20T14:08:44.582Z,27.73
2019-01-20T14:11:16.352Z,28.33
2019-01-20T14:13:48.194Z,26.93
2019-01-20T14:16:20.047Z,29.17
2019-01-20T14:18:52.119Z,33.93
2019-01-20T14:21:23.925Z,29.07
2019-01-20T14:23:55.951Z,22.97
2019-01-20T14:26:28.612Z,22.63
2019-01-20T14:29:00.515Z,20.33
2019-01-20T14:31:32.277Z,19.47
2019-01-20T14:34:04.211Z,20.03
2019-01-20T14:36:35.724Z,29.43
2019-01-20T14:39:13.834Z,28.43
2019-01-20T14:41:45.351Z,26.83
2019-01-20T14:44:17.298Z,27.93
2019-01-20T14:46:49.329Z,28.03
2019-01-20T14:49:21.310Z,25.40
2019-01-20T14:51:52.966Z,26.27
2019-01-20T14:54:24.926Z,24.43
2019-01-20T14:56:58.159Z,22.37
2019-01-20T14:59:30.122Z,25.90
2019-01-20T15:02:01.980Z,22.03
2019-01-20T15:04:33.679Z,25.33
2019-01-20T15:07:06.236Z,26.10
2019-01-20T15:09:38.282Z,23.70
2019-01-20T15:12:09.859Z,23.20
2019-01-20T15:14:41.805Z,23.27
2019-01-20T15:17:13.823Z,24.67
2019-01-20T15:19:45.508Z,23.27
2019-01-20T15:22:17.144Z,23.43
2019-01-20T15:24:48.932Z,20.83
2019-01-20T15:27:20.682Z,23.33
2019-01-20T15:29:52.554Z,23.70
2019-01-20T15:32:24.318Z,24.20
2019-01-20T15:34:56.148Z,22.70
2019-01-20T15:37:29.440Z,24.10
2019-01-20T15:40:01.558Z,26.17
2019-01-20T15:42:33.392Z,28.30
2019-01-20T15:45:05.355Z,25.20
2019-01-20T15:47:37.309Z,24.00
2019-01-20T15:50:13.564Z,22.53
2019-01-20T15:52:45.298Z,24.53
2019-01-20T15:55:17.312Z,24.60
2019-01-20T15:57:48.861Z,25.37
2019-01-20T16:00:23.973Z,26.17
2019-01-20T16:02:56.061Z,27.07
2019-01-20T16:05:29.018Z,27.63
2019-01-20T16:08:00.794Z,24.67
2019-01-20T16:10:32.747Z,22.60
2019-01-20T16:13:04.476Z,23.73
2019-01-20T16:15:38.503Z,21.53
2019-01-20T16:18:14.202Z,21.93
2019-01-20T16:20:43.886Z,21.43
2019-01-20T16:23:16.195Z,20.30
2019-01-20T16:25:48.441Z,24.10
2019-01-20T16:28:20.572Z,23.87
2019-01-20T16:30:52.890Z,25.30
2019-01-20T16:33:25.795Z,26.73
2019-01-20T16:35:59.231Z,28.50
2019-01-20T16:38:31.306Z,27.97
2019-01-20T16:41:03.763Z,28.00
2019-01-20T16:43:35.517Z,21.07
2019-01-20T16:46:07.833Z,23.33
2019-01-20T16:48:40.275Z,21.83
2019-01-20T16:51:12.289Z,18.80
2019-01-20T16:53:44.082Z,22.90
2019-01-20T16:56:15.983Z,18.20
2019-01-20T16:58:51.395Z,14.93
2019-01-20T17:01:22.953Z,17.13
2019-01-20T17:03:55.101Z,20.83
2019-01-20T17:06:27.213Z,19.67
2019-01-20T17:08:59.237Z,15.97
2019-01-20T17:11:31.462Z,16.77
2019-01-20T17:14:03.668Z,18.53
2019-01-20T17:16:35.680Z,16.47
2019-01-20T17:19:07.757Z,18.07
2019-01-20T17:21:39.544Z,22.30
2019-01-20T17:24:11.355Z,18.57
2019-01-20T17:26:43.893Z,20.23
2019-01-20T17:29:15.975Z,20.80
2019-01-20T17:31:48.138Z,17.57
2019-01-20T17:34:19.986Z,20.83
2019-01-20T17:36:52.014Z,17.77
2019-01-20T17:39:24.384Z,19.73
2019-01-20T17:41:56.811Z,19.50
2019-01-20T17:44:28.438Z,18.47
2019-01-20T17:47:00.512Z,18.67
2019-01-20T17:49:33.480Z,20.00
2019-01-20T17:52:06.150Z,19.57
2019-01-20T17:54:37.914Z,16.53
2019-01-20T17:57:10.317Z,18.03
2019-01-20T17:59:43.029Z,21.10
2019-01-20T18:02:15.169Z,17.50
2019-01-20T18:04:47.008Z,21.07
2019-01-20T18:07:19.046Z,23.33
2019-01-20T18:09:50.742Z,20.60
2019-01-20T18:12:22.386Z,22.73
2019-01-20T18:14:54.553Z,22.23
2019-01-20T18:17:26.704Z,23.17
2019-01-20T18:19:58.724Z,23.37
2019-01-20T18:22:30.631Z,23.37
2019-01-20T18:25:02.188Z,23.30
2019-01-20T18:27:33.873Z,21.17
2019-01-20T18:30:09.179Z,23.20
2019-01-20T18:32:41.314Z,24.23
2019-01-20T18:35:14.216Z,24.33
2019-01-20T18:37:46.541Z,23.47
2019-01-20T18:40:21.035Z,24.10
2019-01-20T18:42:52.979Z,19.30
2019-01-20T18:45:28.674Z,28.20
2019-01-20T18:48:01.241Z,26.37
2019-01-20T18:50:35.723Z,27.53
2019-01-20T18:53:07.763Z,29.93
2019-01-20T18:55:39.811Z,32.27
2019-01-20T18:58:11.639Z,27.73
2019-01-20T19:00:47.677Z,29.80
2019-01-20T19:03:19.478Z,31.60
2019-01-20T19:05:51.404Z,25.30
2019-01-20T19:08:23.171Z,29.50
2019-01-20T19:10:54.837Z,31.30
2019-01-20T19:13:26.561Z,29.03
2019-01-20T19:15:58.262Z,23.87
2019-01-20T19:18:32.804Z,30.50
2019-01-20T19:21:04.658Z,32.77
2019-01-20T19:23:36.301Z,34.10
2019-01-20T19:26:07.909Z,32.97
2019-01-20T19:28:39.616Z,39.43
2019-01-20T19:31:11.276Z,34.30
2019-01-20T19:33:45.153Z,42.37
2019-01-20T19:36:17.109Z,45.77
2019-01-20T19:38:48.743Z,39.00
2019-01-20T19:41:21.855Z,33.77
2019-01-20T19:43:53.856Z,34.57
2019-01-20T19:46:25.575Z,34.27
2019-01-20T19:48:57.611Z,34.60
2019-01-20T19:51:29.520Z,36.00
2019-01-20T19:54:01.442Z,35.53
2019-01-20T19:56:33.414Z,36.37
2019-01-20T19:59:05.329Z,37.20
2019-01-20T20:01:37.415Z,36.60
2019-01-20T20:04:09.608Z,38.70
2019-01-20T20:06:41.696Z,37.73
2019-01-20T20:09:15.036Z,38.40
2019-01-20T20:11:46.825Z,39.43
2019-01-20T20:14:20.319Z,38.83
2019-01-20T20:16:52.193Z,37.53
2019-01-20T20:19:24.172Z,38.57
2019-01-20T20:21:55.997Z,34.63
2019-01-20T20:24:27.952Z,40.63
2019-01-20T20:26:59.493Z,39.77
2019-01-20T20:29:31.766Z,46.63
2019-01-20T20:32:03.609Z,42.67
2019-01-20T20:34:35.376Z,31.40
2019-01-20T20:37:07.383Z,41.13
2019-01-20T20:39:39.455Z,40.17
2019-01-20T20:42:11.596Z,40.70
2019-01-20T20:44:43.821Z,42.10
2019-01-20T20:47:15.688Z,42.03
2019-01-20T20:49:47.680Z,38.93
2019-01-20T20:52:20.315Z,37.63
2019-01-20T20:54:52.322Z,39.10
2019-01-20T20:57:24.125Z,30.43
2019-01-20T20:59:56.173Z,39.03
2019-01-20T21:02:28.009Z,40.70
2019-01-20T21:04:59.759Z,37.40
2019-01-20T21:07:31.851Z,38.73
2019-01-20T21:10:03.519Z,30.43
2019-01-20T21:12:35.073Z,27.90
2019-01-20T21:15:09.089Z,27.43
2019-01-20T21:17:47.843Z,38.77
2019-01-20T21:20:20.361Z,39.17
2019-01-20T21:22:52.597Z,38.10
2019-01-20T21:25:25.057Z,31.00
2019-01-20T21:27:59.993Z,38.40
2019-01-20T21:30:31.923Z,36.23
2019-01-20T21:33:03.541Z,22.60
2019-01-20T21:35:38.671Z,36.00
2019-01-20T21:38:10.713Z,32.13
2019-01-20T21:40:42.772Z,25.87
2019-01-20T21:43:14.619Z,39.53
2019-01-20T21:45:46.323Z,35.47
2019-01-20T21:48:18.174Z,40.27
2019-01-20T21:50:50.235Z,35.70
2019-01-20T21:53:22.280Z,37.03
2019-01-20T21:55:53.880Z,34.97
2019-01-20T21:58:25.571Z,36.97
2019-01-20T22:00:57.504Z,35.47
2019-01-20T22:03:29.155Z,33.90
2019-01-20T22:06:00.920Z,33.07
2019-01-20T22:08:32.887Z,40.77
2019-01-20T22:11:04.770Z,36.73
2019-01-20T22:13:36.351Z,37.13
2019-01-20T22:16:08.169Z,38.83
2019-01-20T22:18:39.714Z,36.43
2019-01-20T22:21:11.556Z,39.63
2019-01-20T22:23:43.153Z,38.03
2019-01-20T22:26:15.140Z,33.10
2019-01-20T22:28:46.771Z,33.57
2019-01-20T22:31:18.512Z,25.87
2019-01-20T22:33:50.046Z,38.30
2019-01-20T22:36:21.697Z,35.83
2019-01-20T22:38:53.541Z,35.30
2019-01-20T22:41:25.299Z,32.67
2019-01-20T22:43:56.906Z,39.13
2019-01-20T22:46:28.685Z,37.53
2019-01-20T22:49:00.301Z,36.00
2019-01-20T22:51:31.861Z,29.00
2019-01-20T22:54:04.670Z,34.83
2019-01-20T22:56:36.207Z,35.40
2019-01-20T22:59:07.703Z,31.23
2019-01-20T23:01:39.607Z,34.60
2019-01-20T23:04:12.118Z,34.83
2019-01-20T23:06:43.701Z,36.63
2019-01-20T23:09:15.378Z,29.53
2019-01-20T23:11:46.909Z,33.20
2019-01-20T23:14:18.511Z,23.67
2019-01-20T23:16:50.375Z,37.40
2019-01-20T23:19:21.934Z,33.43
2019-01-20T23:21:53.678Z,36.40
2019-01-20T23:24:25.246Z,37.43
2019-01-20T23:26:56.711Z,34.80
2019-01-20T23:29:28.254Z,40.53
2019-01-20T23:31:59.826Z,35.83
2019-01-20T23:34:31.318Z,38.67
2019-01-20T23:37:03.207Z,38.10
2019-01-20T23:39:35.759Z,36.03
2019-01-20T23:42:07.435Z,27.90
2019-01-20T23:44:38.978Z,35.87
2019-01-20T23:47:15.362Z,27.97
2019-01-20T23:49:44.922Z,36.67
2019-01-20T23:52:16.610Z,27.27
2019-01-20T23:54:48.366Z,36.97
2019-01-20T23:57:20.137Z,26.83
2019-01-20T23:59:51.696Z,37.53
